Time;durP1;ratioP1;P1;durP2;ratioP2;P2;SDS_P1;SDS_P2;PMS_P1;PMS_P2;Temp;Humidity;BMP_temperature;BMP_pressure;BME280_temperature;BME280_humidity;BME280_pressure;Samples;Min_cycle;Max_cycle;Signal;HPM_P1;HPM_P2
2021/05/27 00:02:16;;;;;;;11.67;8.83;;;11.00;99.90;;;;;;4995784;28;20432;-80
2021/05/27 00:04:43;;;;;;;10.80;8.57;;;11.00;99.90;;;;;;5011170;28;20465;-79
2021/05/27 00:07:10;;;;;;;9.68;8.68;;;11.00;99.90;;;;;;5013001;28;20815;-80
2021/05/27 00:09:37;;;;;;;14.20;7.97;;;11.00;99.90;;;;;;5011480;28;20225;-80
2021/05/27 00:12:04;;;;;;;9.90;8.13;;;11.10;99.90;;;;;;4993840;28;20421;-79
2021/05/27 00:14:31;;;;;;;11.03;9.20;;;11.00;99.90;;;;;;4994874;28;20487;-79
2021/05/27 00:16:58;;;;;;;12.63;8.13;;;11.00;99.90;;;;;;5013053;28;20445;-80
2021/05/27 00:19:25;;;;;;;8.90;8.00;;;11.00;99.90;;;;;;5010993;28;20970;-79
2021/05/27 00:21:52;;;;;;;10.17;8.23;;;11.00;99.90;;;;;;4995494;28;20447;-79
2021/05/27 00:24:19;;;;;;;9.83;8.93;;;11.00;99.90;;;;;;5011697;28;20484;-80
2021/05/27 00:26:46;;;;;;;9.52;7.75;;;11.00;99.90;;;;;;5005472;28;20470;-79
2021/05/27 00:29:12;;;;;;;10.57;7.90;;;11.00;99.90;;;;;;5012328;28;20217;-79
2021/05/27 00:31:39;;;;;;;11.10;8.02;;;11.00;99.90;;;;;;5012792;28;20440;-79
2021/05/27 00:34:06;;;;;;;10.43;7.83;;;11.00;99.90;;;;;;5010749;28;20646;-79
2021/05/27 00:36:33;;;;;;;13.80;9.90;;;11.00;99.90;;;;;;5012834;28;20424;-79
2021/05/27 00:39:01;;;;;;;9.67;8.50;;;11.00;99.90;;;;;;5011698;28;20465;-79
2021/05/27 00:41:28;;;;;;;10.13;8.40;;;11.00;99.90;;;;;;5011326;28;20480;-80
2021/05/27 00:43:55;;;;;;;13.13;9.18;;;11.00;99.90;;;;;;5011065;28;20489;-80
2021/05/27 00:46:22;;;;;;;9.40;8.40;;;11.00;99.90;;;;;;5012496;28;20583;-79
2021/05/27 00:49:00;;;;;;;9.60;8.60;;;11.00;99.90;;;;;;5009564;28;20464;-79
2021/05/27 00:51:28;;;;;;;12.90;9.43;;;11.00;99.90;;;;;;4995405;28;20834;-79
2021/05/27 00:53:56;;;;;;;13.60;8.33;;;11.00;99.90;;;;;;4994094;28;20970;-79
2021/05/27 00:56:25;;;;;;;13.80;9.40;;;11.00;99.90;;;;;;5010926;28;20472;-79
2021/05/27 00:58:52;;;;;;;10.63;8.53;;;11.00;99.90;;;;;;5011211;28;20464;-79
2021/05/27 01:01:20;;;;;;;11.73;9.50;;;11.00;99.90;;;;;;5011440;28;20483;-79
2021/05/27 01:03:47;;;;;;;14.83;8.77;;;10.90;99.90;;;;;;5010250;28;20452;-79
2021/05/27 01:06:14;;;;;;;16.00;9.83;;;11.00;99.90;;;;;;5012492;28;20425;-79
2021/05/27 01:08:40;;;;;;;10.03;8.93;;;11.00;99.90;;;;;;5011020;28;20457;-79
2021/05/27 01:11:08;;;;;;;9.63;8.63;;;11.00;99.90;;;;;;5010358;28;20938;-79
2021/05/27 01:13:35;;;;;;;11.07;8.97;;;11.00;99.90;;;;;;4994242;28;20456;-79
2021/05/27 01:16:03;;;;;;;9.60;8.13;;;11.00;99.90;;;;;;5010680;28;20449;-79
2021/05/27 01:18:31;;;;;;;8.80;7.80;;;11.00;99.90;;;;;;4986623;28;20474;-79
2021/05/27 01:20:58;;;;;;;11.87;9.60;;;11.00;99.90;;;;;;5010862;28;20938;-79
2021/05/27 01:23:27;;;;;;;9.70;8.30;;;11.10;99.90;;;;;;4994183;28;20440;-79
2021/05/27 01:25:56;;;;;;;10.13;9.10;;;11.00;99.90;;;;;;5010351;28;20443;-79
2021/05/27 01:28:25;;;;;;;12.27;9.20;;;11.00;99.90;;;;;;4993723;28;20694;-79
2021/05/27 01:30:52;;;;;;;11.83;9.27;;;11.00;99.90;;;;;;5012096;28;20445;-79
2021/05/27 01:33:25;;;;;;;9.97;9.00;;;11.00;99.90;;;;;;5008759;28;20444;-79
2021/05/27 01:35:54;;;;;;;11.90;10.00;;;11.00;99.90;;;;;;4994260;28;20564;-79
2021/05/27 01:38:26;;;;;;;16.03;9.13;;;11.00;99.90;;;;;;5011175;28;20970;-79
2021/05/27 01:40:55;;;;;;;14.00;10.00;;;11.00;99.90;;;;;;5010289;28;20439;-79
2021/05/27 01:43:22;;;;;;;11.40;9.07;;;10.90;99.90;;;;;;5006217;28;20436;-79
2021/05/27 01:45:53;;;;;;;13.37;10.27;;;10.90;99.90;;;;;;5012066;28;20185;-79
2021/05/27 01:48:21;;;;;;;11.07;9.67;;;10.90;99.90;;;;;;4992525;28;20549;-79
2021/05/27 01:50:49;;;;;;;13.30;10.73;;;10.80;99.90;;;;;;5011272;28;20434;-79
2021/05/27 01:53:21;;;;;;;12.50;11.20;;;10.80;99.90;;;;;;5011048;28;20510;-80
2021/05/27 01:55:49;;;;;;;14.93;11.50;;;10.80;99.90;;;;;;5004169;28;20547;-80
2021/05/27 01:58:19;;;;;;;14.45;11.40;;;10.80;99.90;;;;;;4997180;28;20457;-79
2021/05/27 02:00:46;;;;;;;13.33;11.47;;;10.80;99.90;;;;;;4998123;28;20183;-79
2021/05/27 02:03:18;;;;;;;14.73;11.77;;;10.80;99.90;;;;;;4997967;28;20539;-79
2021/05/27 02:05:51;;;;;;;13.23;11.85;;;10.80;99.90;;;;;;4985749;28;20437;-79
2021/05/27 02:08:21;;;;;;;12.53;10.77;;;10.80;99.90;;;;;;5015445;28;20333;-79
2021/05/27 02:10:50;;;;;;;15.70;12.50;;;10.80;99.90;;;;;;4996551;28;20491;-79
2021/05/27 02:13:17;;;;;;;16.50;12.40;;;10.80;99.90;;;;;;5015287;28;20427;-79
2021/05/27 02:15:44;;;;;;;13.00;11.07;;;10.80;99.90;;;;;;4981535;28;20478;-79
2021/05/27 02:18:11;;;;;;;13.97;12.30;;;10.80;99.90;;;;;;5015133;28;20439;-79
2021/05/27 02:20:39;;;;;;;15.03;12.03;;;10.80;99.90;;;;;;4995731;28;20472;-79
2021/05/27 02:23:06;;;;;;;15.80;13.07;;;10.80;99.90;;;;;;5015253;28;20965;-79
2021/05/27 02:25:56;;;;;;;12.30;11.10;;;10.80;99.90;;;;;;4999446;28;20467;-79
2021/05/27 02:28:43;;;;;;;13.10;11.13;;;10.80;99.90;;;;;;5013706;28;20484;-79
2021/05/27 02:31:13;;;;;;;13.33;10.70;;;10.80;99.90;;;;;;4997782;28;20784;-79
2021/05/27 02:33:45;;;;;;;11.63;9.73;;;10.80;99.90;;;;;;5006661;28;20533;-79
2021/05/27 02:36:25;;;;;;;11.70;10.50;;;10.80;99.90;;;;;;4997031;28;20472;-79
2021/05/27 02:38:54;;;;;;;11.60;10.23;;;10.80;99.90;;;;;;5014185;28;20835;-79
2021/05/27 02:41:23;;;;;;;12.53;11.20;;;10.80;99.90;;;;;;4995702;28;20182;-79
2021/05/27 02:43:52;;;;;;;15.47;11.70;;;10.80;99.90;;;;;;4996899;28;20990;-79
2021/05/27 02:46:23;;;;;;;14.97;10.97;;;10.80;99.90;;;;;;5014655;28;20428;-79
2021/05/27 02:48:55;;;;;;;17.03;11.70;;;10.80;99.90;;;;;;5001383;28;20473;-79
2021/05/27 02:51:22;;;;;;;12.60;10.40;;;10.80;99.90;;;;;;5007976;28;20436;-79
2021/05/27 02:53:49;;;;;;;12.30;10.03;;;10.80;99.90;;;;;;5014365;28;20940;-79
2021/05/27 02:56:18;;;;;;;16.33;11.60;;;10.80;99.90;;;;;;5011104;28;20472;-79
2021/05/27 02:58:46;;;;;;;11.97;10.77;;;10.80;99.90;;;;;;4996513;28;20469;-79
2021/05/27 03:01:15;;;;;;;11.40;10.23;;;10.80;99.90;;;;;;5014418;28;20540;-79
2021/05/27 03:03:49;;;;;;;13.13;11.00;;;10.80;99.90;;;;;;4995070;28;20815;-79
2021/05/27 03:06:16;;;;;;;14.50;9.90;;;10.80;99.90;;;;;;4986009;28;20588;-79
2021/05/27 03:08:44;;;;;;;11.63;10.40;;;10.90;99.90;;;;;;4973425;28;20895;-79
2021/05/27 03:11:11;;;;;;;12.07;10.30;;;10.90;99.90;;;;;;4985370;28;20539;-79
2021/05/27 03:13:40;;;;;;;14.10;10.83;;;10.90;99.90;;;;;;5014003;28;21260;-79
2021/05/27 03:16:10;;;;;;;11.97;10.77;;;10.90;99.90;;;;;;4996593;28;20558;-79
2021/05/27 03:18:38;;;;;;;12.87;10.80;;;10.90;99.90;;;;;;5011640;28;20560;-79
2021/05/27 03:21:06;;;;;;;13.00;11.70;;;10.90;99.90;;;;;;5013972;28;20444;-79
2021/05/27 03:23:33;;;;;;;15.17;11.40;;;11.00;99.90;;;;;;5013773;28;20451;-79
2021/05/27 03:26:00;;;;;;;13.03;11.73;;;11.00;99.90;;;;;;4979018;28;20443;-79
2021/05/27 03:28:28;;;;;;;15.10;12.83;;;11.00;99.90;;;;;;5013186;28;20859;-79
2021/05/27 03:31:06;;;;;;;13.70;11.80;;;10.90;99.90;;;;;;4996623;28;20433;-79
2021/05/27 03:33:37;;;;;;;14.90;13.27;;;10.90;99.90;;;;;;4995985;28;20224;-79
2021/05/27 03:36:04;;;;;;;13.90;12.40;;;10.90;99.90;;;;;;4995075;28;20472;-79
2021/05/27 03:38:33;;;;;;;16.93;12.87;;;10.90;99.90;;;;;;4995523;28;20511;-79
2021/05/27 03:41:01;;;;;;;15.23;13.57;;;11.00;99.90;;;;;;5012136;28;20514;-79
2021/05/27 03:43:32;;;;;;;16.37;12.57;;;10.90;99.90;;;;;;5011120;28;20436;-79
2021/05/27 03:46:00;;;;;;;16.23;12.73;;;11.00;99.90;;;;;;4992221;28;20430;-79
2021/05/27 03:48:29;;;;;;;15.63;13.57;;;10.90;99.90;;;;;;4993086;28;20490;-79
2021/05/27 03:50:56;;;;;;;14.73;13.23;;;11.00;99.90;;;;;;5011348;28;20197;-79
2021/05/27 03:53:28;;;;;;;15.80;12.67;;;11.00;99.90;;;;;;5013377;28;20435;-79
2021/05/27 03:55:59;;;;;;;16.50;13.30;;;11.00;99.90;;;;;;5011898;28;20468;-79
2021/05/27 04:01:12;;;;;;;16.77;13.50;;;11.00;99.90;;;;;;5013494;28;20440;-79
2021/05/27 04:09:28;;;;;;;16.10;13.73;;;11.00;99.90;;;;;;5012883;28;20449;-79
2021/05/27 04:12:44;;;;;;;15.83;11.80;;;11.00;99.90;;;;;;5012091;28;20445;-79
2021/05/27 04:14:42;;;;;;;13.40;12.10;;;11.00;99.90;;;;;;4994914;28;20456;-79
2021/05/27 04:17:10;;;;;;;13.90;11.93;;;11.00;99.90;;;;;;5012290;28;20855;-79
2021/05/27 04:19:37;;;;;;;14.17;12.47;;;11.00;99.90;;;;;;5009624;28;20507;-79
2021/05/27 04:22:03;;;;;;;17.53;12.60;;;11.00;99.90;;;;;;5011905;28;20814;-79
2021/05/27 04:24:30;;;;;;;13.17;10.77;;;11.00;99.90;;;;;;5011867;28;20855;-79
2021/05/27 04:26:57;;;;;;;14.57;12.17;;;11.00;99.90;;;;;;5010288;28;20549;-79
2021/05/27 04:29:24;;;;;;;14.63;12.07;;;11.00;99.90;;;;;;5012430;28;20480;-79
2021/05/27 04:31:51;;;;;;;14.90;12.30;;;11.00;99.90;;;;;;4995273;28;20421;-79
2021/05/27 04:34:17;;;;;;;13.87;12.40;;;11.00;99.90;;;;;;5011306;28;20467;-79
2021/05/27 04:36:44;;;;;;;12.03;10.80;;;11.00;99.90;;;;;;5012086;28;20468;-79
2021/05/27 04:39:11;;;;;;;13.80;12.47;;;11.00;99.90;;;;;;5012270;28;20473;-79
2021/05/27 04:41:38;;;;;;;13.43;12.03;;;11.00;99.90;;;;;;5011210;28;20951;-79
2021/05/27 04:44:05;;;;;;;20.93;13.00;;;11.00;99.90;;;;;;5012357;28;20463;-79
2021/05/27 04:46:32;;;;;;;13.37;12.03;;;11.00;99.90;;;;;;4995074;28;20440;-79
2021/05/27 04:48:58;;;;;;;15.50;12.47;;;11.00;99.90;;;;;;5008981;28;20567;-79
2021/05/27 04:51:26;;;;;;;15.53;12.70;;;11.00;99.90;;;;;;5008763;28;21030;-79
2021/05/27 04:53:52;;;;;;;14.57;11.57;;;11.00;99.90;;;;;;4994797;28;20493;-79
2021/05/27 04:56:21;;;;;;;18.33;12.20;;;11.00;99.90;;;;;;5011126;28;20468;-79
2021/05/27 04:58:48;;;;;;;14.90;12.40;;;11.00;99.90;;;;;;5011437;28;20473;-79
2021/05/27 05:01:14;;;;;;;15.27;11.70;;;11.10;99.90;;;;;;5012479;28;20416;-79
2021/05/27 05:03:41;;;;;;;15.63;13.30;;;11.00;99.90;;;;;;5011729;28;20984;-79
2021/05/27 05:06:08;;;;;;;17.17;12.37;;;11.10;99.90;;;;;;5010729;28;20445;-79
2021/05/27 05:08:35;;;;;;;13.97;12.60;;;11.00;99.90;;;;;;5011057;28;21082;-79
2021/05/27 05:11:02;;;;;;;18.93;14.40;;;11.00;99.90;;;;;;5010999;28;20451;-79
2021/05/27 05:13:29;;;;;;;18.93;13.40;;;11.00;99.90;;;;;;5011745;28;20437;-79
2021/05/27 05:15:56;;;;;;;15.63;13.00;;;11.10;99.90;;;;;;5011957;28;20552;-79
2021/05/27 05:18:23;;;;;;;15.43;13.87;;;11.10;99.90;;;;;;5010091;28;20459;-79
2021/05/27 05:20:50;;;;;;;14.70;13.10;;;11.10;99.90;;;;;;5010729;28;20807;-79
2021/05/27 05:23:18;;;;;;;17.77;13.30;;;11.00;99.90;;;;;;5011620;28;20435;-79
2021/05/27 05:25:45;;;;;;;14.73;12.87;;;11.00;99.90;;;;;;5010798;28;20451;-79
2021/05/27 05:28:12;;;;;;;17.63;11.07;;;11.10;99.90;;;;;;5011557;28;20457;-79
2021/05/27 05:30:39;;;;;;;16.93;12.40;;;11.10;99.90;;;;;;5011009;28;20475;-79
2021/05/27 05:33:06;;;;;;;17.97;12.60;;;11.10;99.90;;;;;;4992292;28;20529;-79
2021/05/27 05:35:33;;;;;;;15.30;13.37;;;11.10;99.90;;;;;;4975019;28;20473;-79
2021/05/27 05:38:00;;;;;;;14.30;12.27;;;11.10;99.90;;;;;;4992543;28;20545;-79
2021/05/27 05:40:28;;;;;;;18.93;14.03;;;11.10;99.90;;;;;;5002843;28;20466;-79
2021/05/27 05:42:58;;;;;;;15.00;13.40;;;11.10;99.90;;;;;;4992366;28;20426;-79
2021/05/27 05:45:35;;;;;;;14.53;13.07;;;11.10;99.90;;;;;;4998615;28;20478;-79
2021/05/27 05:48:07;;;;;;;14.23;12.30;;;11.20;99.90;;;;;;5011183;28;20476;-79
2021/05/27 05:50:50;;;;;;;15.73;13.23;;;11.20;99.90;;;;;;4979230;28;20477;-79
2021/05/27 05:53:22;;;;;;;15.57;13.33;;;11.20;99.90;;;;;;4979997;28;20512;-79
2021/05/27 05:55:51;;;;;;;13.87;12.10;;;11.30;99.90;;;;;;5009883;28;20519;-79
2021/05/27 05:58:19;;;;;;;14.97;13.40;;;11.30;99.90;;;;;;5011164;28;20473;-79
2021/05/27 06:00:48;;;;;;;16.20;14.07;;;11.30;99.90;;;;;;4994086;28;20429;-79
2021/05/27 06:03:15;;;;;;;16.50;14.37;;;11.30;99.90;;;;;;5010204;28;20449;-79
2021/05/27 06:05:54;;;;;;;15.97;14.27;;;11.30;99.90;;;;;;5011399;28;20456;-79
2021/05/27 06:08:40;;;;;;;20.30;14.37;;;11.30;99.90;;;;;;5009827;28;20463;-79
2021/05/27 06:11:07;;;;;;;14.37;12.80;;;11.20;99.90;;;;;;4990394;28;20495;-79
2021/05/27 06:13:35;;;;;;;14.27;12.80;;;11.30;99.90;;;;;;5011157;28;20417;-79
2021/05/27 06:16:02;;;;;;;14.77;13.17;;;11.30;99.90;;;;;;4993998;28;20457;-78
2021/05/27 06:18:29;;;;;;;14.57;11.50;;;11.30;99.90;;;;;;4999370;28;20517;-78
2021/05/27 06:21:22;;;;;;;17.67;12.47;;;11.40;99.90;;;;;;5008625;28;20433;-79
2021/05/27 06:23:52;;;;;;;15.50;12.80;;;11.30;99.90;;;;;;4977098;28;20506;-79
2021/05/27 06:26:19;;;;;;;13.53;12.13;;;11.30;99.90;;;;;;5001027;28;21005;-79
2021/05/27 06:28:46;;;;;;;16.23;11.70;;;11.30;99.90;;;;;;4992400;28;20463;-79
2021/05/27 06:31:13;;;;;;;15.53;12.63;;;11.30;99.90;;;;;;4993991;28;20465;-78
2021/05/27 06:33:43;;;;;;;13.83;11.20;;;11.30;99.90;;;;;;4979447;28;20973;-79
2021/05/27 06:36:11;;;;;;;13.33;11.90;;;11.30;99.90;;;;;;4977628;28;20460;-79
2021/05/27 06:38:38;;;;;;;14.07;12.57;;;11.40;99.90;;;;;;5010131;28;20464;-79
2021/05/27 06:41:07;;;;;;;14.33;12.43;;;11.40;99.90;;;;;;4993543;28;20444;-79
2021/05/27 06:43:35;;;;;;;14.23;12.67;;;11.40;99.90;;;;;;5014140;28;20437;-80
2021/05/27 06:46:03;;;;;;;14.83;12.90;;;11.40;99.90;;;;;;4988983;28;20452;-79
2021/05/27 06:48:30;;;;;;;20.93;14.50;;;11.30;99.90;;;;;;5011299;28;20456;-79
2021/05/27 06:50:58;;;;;;;21.00;12.80;;;11.30;99.90;;;;;;4996331;28;20429;-80
2021/05/27 06:53:25;;;;;;;16.43;13.50;;;11.30;99.90;;;;;;5013534;28;20853;-79
2021/05/27 06:55:54;;;;;;;17.07;12.33;;;11.30;99.90;;;;;;4994846;28;20452;-79
2021/05/27 06:58:21;;;;;;;14.03;12.37;;;11.30;99.90;;;;;;4995054;28;20468;-79
2021/05/27 07:00:48;;;;;;;21.30;13.17;;;11.30;99.90;;;;;;4996169;28;20485;-79
2021/05/27 07:03:21;;;;;;;14.30;11.87;;;11.30;99.90;;;;;;4995233;28;20444;-79
2021/05/27 07:05:49;;;;;;;14.77;12.80;;;11.30;99.90;;;;;;4996033;28;21036;-79
2021/05/27 07:08:16;;;;;;;16.60;13.33;;;11.30;99.90;;;;;;4995404;28;20788;-78
2021/05/27 07:10:44;;;;;;;12.90;11.50;;;11.40;99.90;;;;;;5011863;28;20442;-79
2021/05/27 07:13:11;;;;;;;15.47;12.47;;;11.40;99.90;;;;;;5012689;28;20451;-79
2021/05/27 07:15:39;;;;;;;13.43;11.80;;;11.40;99.90;;;;;;5012766;28;20830;-80
2021/05/27 07:18:06;;;;;;;14.17;11.03;;;11.40;99.90;;;;;;5013381;28;20483;-79
2021/05/27 07:20:34;;;;;;;21.23;12.20;;;11.40;99.90;;;;;;4993909;28;20480;-80
2021/05/27 07:23:03;;;;;;;16.53;11.80;;;11.40;99.90;;;;;;5014074;28;20756;-79
2021/05/27 07:25:30;;;;;;;16.13;13.77;;;11.40;99.90;;;;;;4993543;28;20546;-79
2021/05/27 07:27:58;;;;;;;17.63;14.27;;;11.40;99.90;;;;;;5013405;28;20452;-79
2021/05/27 07:30:27;;;;;;;17.20;13.60;;;11.40;99.90;;;;;;5012258;28;20519;-79
2021/05/27 07:32:58;;;;;;;18.00;13.13;;;11.40;99.90;;;;;;5012189;28;20994;-80
2021/05/27 07:35:27;;;;;;;20.50;14.27;;;11.40;99.90;;;;;;4995187;28;20504;-80
2021/05/27 07:37:56;;;;;;;21.33;13.80;;;11.40;99.90;;;;;;4995371;28;20993;-80
2021/05/27 07:40:25;;;;;;;17.37;13.10;;;11.40;99.90;;;;;;5006685;28;20473;-80
2021/05/27 07:42:53;;;;;;;17.37;13.10;;;11.40;99.90;;;;;;5013402;28;20490;-79
2021/05/27 07:45:21;;;;;;;17.40;13.73;;;11.40;99.90;;;;;;4995335;28;20527;-79
2021/05/27 07:47:48;;;;;;;17.90;13.83;;;11.40;99.90;;;;;;5013391;28;20457;-80
2021/05/27 07:50:20;;;;;;;20.73;13.57;;;11.40;99.90;;;;;;4993967;28;20468;-81
2021/05/27 07:52:52;;;;;;;17.40;12.97;;;11.40;99.90;;;;;;5003133;28;20452;-81
2021/05/27 07:55:20;;;;;;;16.43;14.03;;;11.40;99.90;;;;;;5000076;28;20477;-81
2021/05/27 07:57:47;;;;;;;16.20;13.30;;;11.30;99.90;;;;;;4995113;28;20486;-81
2021/05/27 08:00:15;;;;;;;16.40;13.77;;;11.30;99.90;;;;;;4991825;28;20469;-81
2021/05/27 08:02:43;;;;;;;15.70;13.83;;;11.30;99.90;;;;;;5009661;28;20769;-80
2021/05/27 08:05:12;;;;;;;14.90;12.40;;;11.30;99.90;;;;;;5005740;28;21002;-81
2021/05/27 08:07:40;;;;;;;16.93;13.83;;;11.30;99.90;;;;;;5013763;28;20449;-81
2021/05/27 08:10:09;;;;;;;15.97;13.60;;;11.30;99.90;;;;;;5010724;28;20846;-80
2021/05/27 08:12:42;;;;;;;15.17;12.93;;;11.30;99.90;;;;;;4995739;28;20445;-80
2021/05/27 08:15:10;;;;;;;16.23;14.20;;;11.40;99.90;;;;;;4994828;28;20527;-79
2021/05/27 08:17:37;;;;;;;19.70;14.17;;;11.40;99.90;;;;;;5012235;28;20472;-80
2021/05/27 08:20:06;;;;;;;14.80;12.43;;;11.50;99.90;;;;;;4976211;28;20833;-80
2021/05/27 08:22:33;;;;;;;15.90;13.10;;;11.60;99.90;;;;;;4959986;28;20458;-80
2021/05/27 08:25:06;;;;;;;16.23;14.37;;;11.60;99.90;;;;;;4992485;28;20480;-80
2021/05/27 08:27:34;;;;;;;16.40;13.73;;;11.70;99.90;;;;;;5012227;28;20473;-80
2021/05/27 08:30:04;;;;;;;20.33;14.13;;;11.90;99.90;;;;;;4994742;28;20461;-80
2021/05/27 08:32:31;;;;;;;22.10;14.73;;;12.10;99.90;;;;;;5012731;28;20440;-80
2021/05/27 08:35:01;;;;;;;19.03;13.77;;;12.10;99.90;;;;;;4993046;28;20480;-80
2021/05/27 08:37:28;;;;;;;20.37;16.37;;;12.20;99.90;;;;;;5011536;28;20866;-80
2021/05/27 08:39:55;;;;;;;16.90;14.73;;;12.40;99.90;;;;;;4990585;28;20568;-80
2021/05/27 08:42:25;;;;;;;19.90;15.30;;;12.40;99.90;;;;;;4993149;28;20800;-79
2021/05/27 08:44:56;;;;;;;15.93;14.00;;;12.40;99.90;;;;;;5000569;28;20468;-80
2021/05/27 08:47:23;;;;;;;21.03;15.87;;;12.30;99.90;;;;;;5011334;28;20515;-80
2021/05/27 08:49:51;;;;;;;15.90;14.27;;;12.30;99.90;;;;;;5004838;28;20875;-80
2021/05/27 08:52:18;;;;;;;21.97;16.23;;;12.20;99.90;;;;;;5004875;28;20429;-83
2021/05/27 08:54:53;;;;;;;17.83;15.43;;;12.20;99.90;;;;;;5008202;28;20499;-83
2021/05/27 08:57:25;;;;;;;18.47;15.30;;;12.10;99.90;;;;;;5019835;28;20548;-85
2021/05/27 09:00:26;;;;;;;19.60;15.23;;;12.10;99.90;;;;;;4992582;28;20527;-83
2021/05/27 09:03:18;;;;;;;19.63;15.20;;;12.00;99.90;;;;;;4993616;28;20412;-83
2021/05/27 09:06:00;;;;;;;19.03;15.70;;;11.90;99.90;;;;;;5004541;28;20453;-81
2021/05/27 09:08:34;;;;;;;23.10;17.20;;;11.80;99.90;;;;;;4985065;28;20457;-81
2021/05/27 09:11:20;;;;;;;19.27;17.00;;;11.80;99.90;;;;;;5002952;28;20448;-82
2021/05/27 09:14:08;;;;;;;17.47;15.50;;;11.80;99.90;;;;;;5031878;28;20460;-82
2021/05/27 09:16:54;;;;;;;19.47;15.43;;;11.70;99.90;;;;;;5009592;28;20461;-80
2021/05/27 09:19:22;;;;;;;17.97;16.17;;;11.70;99.90;;;;;;4993754;28;20899;-80
2021/05/27 09:21:49;;;;;;;21.17;17.33;;;11.80;99.90;;;;;;5012351;28;20978;-80
2021/05/27 09:24:16;;;;;;;18.23;16.37;;;11.70;99.90;;;;;;4993976;28;20465;-80
2021/05/27 09:26:49;;;;;;;26.37;16.33;;;11.60;99.90;;;;;;4969481;28;20998;-80
2021/05/27 09:29:19;;;;;;;20.00;17.67;;;11.60;99.90;;;;;;5012004;28;20473;-81
2021/05/27 09:32:04;;;;;;;16.83;15.13;;;11.60;99.90;;;;;;5009344;28;20441;-81
2021/05/27 09:34:51;;;;;;;18.80;14.60;;;11.60;99.90;;;;;;4991634;28;20465;-80
2021/05/27 09:37:28;;;;;;;14.97;12.97;;;11.70;99.90;;;;;;4994386;28;20475;-79
2021/05/27 09:39:57;;;;;;;13.40;10.93;;;11.80;99.90;;;;;;5007609;28;20571;-79
2021/05/27 09:42:25;;;;;;;13.47;11.40;;;11.80;99.90;;;;;;4999978;28;20452;-79
2021/05/27 09:44:53;;;;;;;15.20;12.17;;;11.90;99.90;;;;;;4993810;28;20464;-79
2021/05/27 09:47:33;;;;;;;19.07;11.80;;;11.90;99.90;;;;;;4993648;28;20464;-79
2021/05/27 09:50:04;;;;;;;16.40;11.10;;;12.00;99.90;;;;;;5004025;28;20470;-80
2021/05/27 09:52:46;;;;;;;11.63;10.47;;;11.90;99.90;;;;;;4991083;28;20426;-79
2021/05/27 09:55:15;;;;;;;10.30;9.20;;;12.00;99.90;;;;;;4995773;28;20559;-79
2021/05/27 09:57:44;;;;;;;14.60;9.20;;;12.00;99.90;;;;;;5011614;28;21000;-79
2021/05/27 10:00:28;;;;;;;11.33;10.10;;;12.10;99.90;;;;;;4993759;28;20907;-79
2021/05/27 10:02:55;;;;;;;10.37;8.63;;;12.10;99.90;;;;;;5011764;28;20524;-79
2021/05/27 10:05:22;;;;;;;11.53;9.00;;;12.10;99.90;;;;;;4975372;28;20554;-80
2021/05/27 10:07:51;;;;;;;10.93;8.80;;;12.10;99.90;;;;;;4972293;28;20479;-79
2021/05/27 10:10:39;;;;;;;9.40;8.50;;;12.10;99.90;;;;;;4960412;28;20470;-79
2021/05/27 10:13:08;;;;;;;9.00;7.13;;;12.20;99.90;;;;;;4972789;28;20419;-79
2021/05/27 10:15:43;;;;;;;8.30;7.50;;;12.10;99.90;;;;;;4973116;28;20540;-79
2021/05/27 10:18:14;;;;;;;8.77;7.90;;;12.10;99.90;;;;;;4976972;28;20465;-79
2021/05/27 10:20:42;;;;;;;8.43;7.63;;;12.10;99.90;;;;;;4997421;28;20989;-79
2021/05/27 10:23:09;;;;;;;8.90;7.80;;;12.10;99.90;;;;;;4998243;28;20409;-79
2021/05/27 10:25:37;;;;;;;9.63;8.37;;;12.20;99.90;;;;;;4984700;28;20836;-79
2021/05/27 10:28:09;;;;;;;11.27;7.60;;;12.20;99.90;;;;;;4958931;28;20481;-80
2021/05/27 10:30:38;;;;;;;9.23;8.00;;;12.10;99.90;;;;;;4942010;28;20466;-79
2021/05/27 10:33:08;;;;;;;14.93;7.53;;;12.10;99.90;;;;;;4961061;28;20800;-80
2021/05/27 10:35:48;;;;;;;14.73;8.50;;;12.10;99.90;;;;;;4980647;28;20475;-79
2021/05/27 10:38:38;;;;;;;8.50;7.70;;;12.10;99.90;;;;;;4976194;28;20474;-79
2021/05/27 10:41:11;;;;;;;8.27;7.47;;;12.20;99.90;;;;;;4988165;28;20477;-80
2021/05/27 10:44:00;;;;;;;10.23;7.97;;;12.20;99.90;;;;;;4995490;28;20499;-80
2021/05/27 10:46:37;;;;;;;10.40;8.53;;;12.10;99.90;;;;;;4995691;28;20520;-80
2021/05/27 10:49:03;;;;;;;9.47;8.43;;;12.20;99.90;;;;;;5002188;28;20538;-79
2021/05/27 10:51:42;;;;;;;10.50;8.90;;;12.30;99.90;;;;;;5015178;28;20417;-79
2021/05/27 10:54:27;;;;;;;10.80;9.63;;;12.30;99.90;;;;;;4997136;28;20463;-79
2021/05/27 10:56:54;;;;;;;10.07;8.73;;;12.30;99.90;;;;;;4994903;28;20466;-80
2021/05/27 10:59:31;;;;;;;14.20;9.97;;;12.40;99.90;;;;;;4994541;28;20541;-79
2021/05/27 11:02:00;;;;;;;11.57;9.50;;;12.60;99.90;;;;;;4977798;28;20441;-79
2021/05/27 11:04:39;;;;;;;10.10;8.33;;;12.70;99.90;;;;;;4995534;28;20544;-79
2021/05/27 11:07:26;;;;;;;10.80;9.80;;;12.70;99.90;;;;;;5014408;28;20806;-80
2021/05/27 11:09:55;;;;;;;11.20;8.77;;;12.70;99.90;;;;;;5010167;28;20508;-79
2021/05/27 11:12:25;;;;;;;10.40;8.57;;;12.70;99.90;;;;;;4994999;28;20421;-80
2021/05/27 11:14:53;;;;;;;11.43;8.30;;;12.90;99.90;;;;;;4976921;28;20474;-79
2021/05/27 11:17:25;;;;;;;9.50;8.50;;;13.00;99.90;;;;;;4993712;28;20503;-80
2021/05/27 11:22:30;;;;;;;12.33;9.90;;;13.30;99.90;;;;;;5012993;28;20472;-80
2021/05/27 11:25:10;;;;;;;14.00;10.13;;;13.40;99.90;;;;;;5003295;28;20787;-79
2021/05/27 11:27:43;;;;;;;8.17;7.37;;;13.40;99.90;;;;;;5007828;28;20452;-78
2021/05/27 11:30:17;;;;;;;11.93;8.07;;;13.50;99.90;;;;;;5012072;28;20530;-80
2021/05/27 11:32:48;;;;;;;11.23;8.50;;;13.30;99.90;;;;;;5013340;28;20989;-80
2021/05/27 11:35:16;;;;;;;11.07;9.37;;;13.20;99.90;;;;;;5004804;28;20465;-79
2021/05/27 11:37:44;;;;;;;14.40;9.00;;;13.10;99.90;;;;;;4995305;28;20479;-79
2021/05/27 11:40:16;;;;;;;13.90;8.87;;;13.00;99.90;;;;;;4986730;28;20478;-80
2021/05/27 11:42:54;;;;;;;11.40;8.43;;;13.10;99.90;;;;;;4974567;28;20503;-80
2021/05/27 11:45:27;;;;;;;9.53;8.10;;;13.30;99.90;;;;;;5012842;28;20508;-80
2021/05/27 11:48:22;;;;;;;12.13;8.50;;;13.40;99.90;;;;;;5013127;28;20819;-80
2021/05/27 11:50:50;;;;;;;11.03;8.70;;;13.50;99.90;;;;;;5010735;28;20960;-80
2021/05/27 11:53:21;;;;;;;9.83;8.83;;;13.60;99.90;;;;;;4986289;28;20931;-78
2021/05/27 11:55:57;;;;;;;11.23;8.47;;;13.60;99.90;;;;;;4994709;28;20483;-80
2021/05/27 11:58:38;;;;;;;9.37;8.40;;;13.50;99.90;;;;;;4976743;28;20458;-80
2021/05/27 12:01:16;;;;;;;10.40;8.00;;;13.40;99.90;;;;;;5011364;28;20444;-80
2021/05/27 12:04:00;;;;;;;12.80;8.57;;;13.20;99.90;;;;;;4992047;28;20457;-80
2021/05/27 12:06:41;;;;;;;9.03;7.90;;;13.20;99.90;;;;;;5007811;28;20433;-80
2021/05/27 12:09:12;;;;;;;10.70;8.63;;;13.20;99.90;;;;;;4994644;28;20496;-80
2021/05/27 12:11:40;;;;;;;12.77;7.60;;;13.30;99.90;;;;;;4994290;28;20519;-80
2021/05/27 12:14:07;;;;;;;8.07;7.13;;;13.40;99.90;;;;;;4994891;28;20504;-80
2021/05/27 12:16:37;;;;;;;8.27;6.87;;;13.40;99.90;;;;;;4995971;28;20429;-80
2021/05/27 12:19:07;;;;;;;9.63;7.10;;;13.50;99.90;;;;;;5010605;28;20527;-80
2021/05/27 12:21:35;;;;;;;6.67;6.17;;;13.60;99.90;;;;;;5013142;28;20454;-80
2021/05/27 12:24:03;;;;;;;11.53;7.37;;;13.70;99.90;;;;;;5011876;28;20531;-80
2021/05/27 12:26:30;;;;;;;8.83;6.70;;;13.80;99.90;;;;;;5011006;28;20926;-80
2021/05/27 12:28:58;;;;;;;10.43;6.87;;;13.80;99.90;;;;;;5003775;28;20455;-80
2021/05/27 12:31:30;;;;;;;8.90;5.70;;;13.90;99.90;;;;;;5012681;28;20470;-80
2021/05/27 12:34:01;;;;;;;7.07;6.03;;;14.00;99.90;;;;;;5009044;28;20869;-79
2021/05/27 12:36:29;;;;;;;9.53;4.83;;;14.10;99.90;;;;;;5012661;28;20438;-79
2021/05/27 12:38:56;;;;;;;11.47;6.37;;;14.20;99.90;;;;;;5011668;28;21050;-79
2021/05/27 12:41:23;;;;;;;6.73;5.70;;;14.10;99.90;;;;;;5009306;28;20449;-79
2021/05/27 12:43:52;;;;;;;8.50;5.83;;;14.20;99.90;;;;;;5011542;28;20871;-79
2021/05/27 12:46:40;;;;;;;6.67;5.10;;;14.20;99.90;;;;;;5012409;28;20491;-79
2021/05/27 12:49:08;;;;;;;7.73;4.60;;;14.30;99.90;;;;;;5008870;28;20997;-80
2021/05/27 12:51:40;;;;;;;8.23;4.97;;;14.30;99.90;;;;;;4994840;28;20449;-79
2021/05/27 12:54:07;;;;;;;8.73;5.37;;;14.40;99.90;;;;;;4993417;28;20886;-79
2021/05/27 12:56:35;;;;;;;8.33;6.17;;;14.40;99.90;;;;;;5006422;28;20543;-79
2021/05/27 12:59:02;;;;;;;6.00;4.80;;;14.40;99.90;;;;;;5010429;28;20941;-79
2021/05/27 13:01:40;;;;;;;7.53;5.43;;;14.40;99.90;;;;;;5010901;28;20924;-80